Time;durP1;ratioP1;P1;durP2;ratioP2;P2;SDS_P1;SDS_P2;PMS_P1;PMS_P2;Temp;Humidity;BMP_temperature;BMP_pressure;BME280_temperature;BME280_humidity;BME280_pressure;Samples;Min_cycle;Max_cycle;Signal;HPM_P1;HPM_P2
2022/06/23 00:00:27;;;;;;;6.10;3.35;;;19.60;98.60;;;;;;5045116;28;20181;-74
2022/06/23 00:02:54;;;;;;;6.13;3.88;;;19.60;99.10;;;;;;5045462;28;20180;-73
2022/06/23 00:05:23;;;;;;;3.28;2.97;;;19.60;99.90;;;;;;5045763;28;20224;-73
2022/06/23 00:07:54;;;;;;;6.03;4.05;;;19.30;99.90;;;;;;5047431;28;20655;-72
2022/06/23 00:10:35;;;;;;;5.47;3.97;;;19.40;99.90;;;;;;5036370;28;20204;-74
2022/06/23 00:13:03;;;;;;;6.05;4.22;;;19.40;99.90;;;;;;5035229;28;20181;-73
2022/06/23 00:15:38;;;;;;;3.58;2.90;;;19.40;99.90;;;;;;5035551;28;20185;-74
2022/06/23 00:18:13;;;;;;;5.63;2.92;;;19.40;99.90;;;;;;5035269;28;20246;-73
2022/06/23 00:20:41;;;;;;;3.80;2.70;;;19.30;99.90;;;;;;5035602;28;20185;-73
2022/06/23 00:23:11;;;;;;;5.05;2.97;;;19.30;99.90;;;;;;5035279;28;20621;-74
2022/06/23 00:26:07;;;;;;;4.45;3.13;;;19.30;99.90;;;;;;5034957;28;20227;-73
2022/06/23 00:28:57;;;;;;;10.38;3.58;;;19.20;99.90;;;;;;5034635;28;20233;-73
2022/06/23 00:31:30;;;;;;;7.32;4.32;;;19.10;99.90;;;;;;5035011;28;20181;-73
2022/06/23 00:33:57;;;;;;;5.55;2.90;;;19.10;99.90;;;;;;5034902;28;20192;-73
2022/06/23 00:36:25;;;;;;;4.07;2.72;;;19.10;99.90;;;;;;5034854;28;20180;-73
2022/06/23 00:38:51;;;;;;;4.05;2.90;;;19.20;99.90;;;;;;5035164;28;20188;-73
2022/06/23 00:41:28;;;;;;;4.07;2.65;;;19.10;99.90;;;;;;5034645;28;20272;-74
2022/06/23 00:43:56;;;;;;;8.32;2.55;;;18.80;99.90;;;;;;5035295;28;20216;-73
2022/06/23 00:46:26;;;;;;;3.97;2.95;;;18.60;99.90;;;;;;5034712;28;20176;-72
2022/06/23 00:49:09;;;;;;;2.67;2.47;;;18.60;99.90;;;;;;5034398;28;20176;-72
2022/06/23 00:51:53;;;;;;;3.55;2.70;;;18.50;99.90;;;;;;5035005;28;20694;-72
2022/06/23 00:54:32;;;;;;;4.22;2.90;;;18.30;99.90;;;;;;5034658;28;20204;-72
2022/06/23 00:57:02;;;;;;;3.65;2.85;;;18.20;99.90;;;;;;5035235;28;20246;-73
2022/06/23 00:59:48;;;;;;;2.88;2.65;;;17.90;99.90;;;;;;5034659;28;20647;-72
2022/06/23 01:02:22;;;;;;;4.43;2.90;;;17.90;99.90;;;;;;5034838;28;20187;-73
2022/06/23 01:04:56;;;;;;;4.30;2.53;;;17.80;99.90;;;;;;5034768;28;20231;-73
2022/06/23 01:07:59;;;;;;;3.28;2.70;;;17.80;99.90;;;;;;5034157;28;20173;-73
2022/06/23 01:10:28;;;;;;;6.53;2.70;;;17.90;99.90;;;;;;5033253;28;20191;-75
2022/06/23 01:13:11;;;;;;;3.60;2.78;;;17.90;99.90;;;;;;5034085;28;20282;-73
2022/06/23 01:15:58;;;;;;;3.28;2.78;;;17.90;99.90;;;;;;5034141;28;20189;-72
2022/06/23 01:18:33;;;;;;;3.25;2.72;;;18.00;99.90;;;;;;4983491;28;20635;-73
2022/06/23 01:21:34;;;;;;;5.78;3.15;;;18.00;99.90;;;;;;5034514;28;20177;-73
2022/06/23 01:24:43;;;;;;;4.22;3.47;;;18.10;99.90;;;;;;5000969;28;20220;-72
2022/06/23 01:27:24;;;;;;;3.72;3.05;;;18.00;99.90;;;;;;5034340;28;20173;-73
2022/06/23 01:30:09;;;;;;;3.67;2.90;;;18.00;99.90;;;;;;5033751;28;20227;-74
2022/06/23 01:33:16;;;;;;;5.65;2.63;;;17.90;99.90;;;;;;5034235;28;20176;-73
2022/06/23 01:35:51;;;;;;;3.67;2.70;;;17.90;99.90;;;;;;5004435;28;20188;-73
2022/06/23 01:38:33;;;;;;;3.30;3.00;;;17.90;99.90;;;;;;5034086;28;20177;-73
2022/06/23 01:41:10;;;;;;;2.83;2.50;;;17.70;99.90;;;;;;5034242;28;20282;-74
2022/06/23 01:43:40;;;;;;;4.47;3.35;;;17.60;99.90;;;;;;5033985;28;20250;-73
2022/06/23 01:46:16;;;;;;;3.35;2.30;;;17.70;99.90;;;;;;5034158;28;20185;-72
2022/06/23 01:49:01;;;;;;;5.03;3.38;;;17.80;99.90;;;;;;5033972;28;20204;-73
2022/06/23 01:51:41;;;;;;;3.15;2.75;;;17.60;99.90;;;;;;5037299;28;20176;-74
2022/06/23 01:54:15;;;;;;;2.60;2.40;;;17.60;99.90;;;;;;5044285;28;20223;-73
2022/06/23 01:57:03;;;;;;;3.15;2.83;;;17.50;99.90;;;;;;5046096;28;20196;-74
2022/06/23 01:59:45;;;;;;;3.25;2.60;;;17.50;99.90;;;;;;5046476;28;20226;-74
2022/06/23 02:02:11;;;;;;;3.25;2.70;;;17.50;99.90;;;;;;5037918;28;20188;-73
2022/06/23 02:05:00;;;;;;;3.88;2.60;;;17.60;99.90;;;;;;5033704;28;20212;-73
2022/06/23 02:07:41;;;;;;;3.70;2.42;;;17.50;99.90;;;;;;5033289;28;20184;-73
2022/06/23 02:10:18;;;;;;;2.97;2.67;;;17.40;99.90;;;;;;5033410;28;20325;-73
2022/06/23 02:13:01;;;;;;;3.72;2.30;;;17.50;99.90;;;;;;5033674;28;20199;-73
2022/06/23 02:15:38;;;;;;;2.70;2.47;;;17.40;99.90;;;;;;5033614;28;20181;-73
2022/06/23 02:18:18;;;;;;;6.43;2.70;;;17.40;99.90;;;;;;5033740;28;20184;-73
2022/06/23 02:21:20;;;;;;;2.75;2.50;;;17.40;99.90;;;;;;5033365;28;20234;-74
2022/06/23 02:24:31;;;;;;;3.70;2.60;;;17.20;99.90;;;;;;5036775;28;20188;-73
2022/06/23 02:27:21;;;;;;;3.92;2.55;;;17.20;99.90;;;;;;5021984;28;20185;-73
2022/06/23 02:30:20;;;;;;;6.90;2.97;;;17.20;99.90;;;;;;5036718;28;20203;-73
2022/06/23 02:33:04;;;;;;;3.40;2.95;;;17.10;99.90;;;;;;5037153;28;20184;-73
2022/06/23 02:35:43;;;;;;;3.28;2.90;;;16.90;99.90;;;;;;5037625;28;20180;-73
2022/06/23 02:38:17;;;;;;;3.47;3.00;;;16.80;99.90;;;;;;5036660;28;20203;-73
2022/06/23 02:40:48;;;;;;;7.25;3.40;;;16.80;99.90;;;;;;5036825;28;20173;-73
2022/06/23 02:43:38;;;;;;;2.80;2.60;;;17.00;99.90;;;;;;5037534;28;20192;-73
2022/06/23 02:46:24;;;;;;;3.20;2.90;;;16.70;99.90;;;;;;5036820;28;20225;-73
2022/06/23 02:49:09;;;;;;;3.42;2.85;;;16.60;99.90;;;;;;5036782;28;20208;-72
2022/06/23 02:52:17;;;;;;;3.25;2.75;;;16.60;99.90;;;;;;5036798;28;20619;-74
2022/06/23 02:55:16;;;;;;;3.97;2.90;;;16.60;99.90;;;;;;5019730;28;20541;-73
2022/06/23 02:58:10;;;;;;;3.33;3.03;;;16.70;99.90;;;;;;5037106;28;20536;-72
2022/06/23 03:00:53;;;;;;;2.70;2.50;;;16.80;99.90;;;;;;5036540;28;20624;-73
2022/06/23 03:03:39;;;;;;;5.47;3.10;;;16.90;99.90;;;;;;5036864;28;20257;-73
2022/06/23 03:06:20;;;;;;;3.40;2.93;;;16.80;99.90;;;;;;5037411;28;20189;-74
2022/06/23 03:08:53;;;;;;;5.75;3.40;;;16.90;99.90;;;;;;5037401;28;20238;-73
2022/06/23 03:11:53;;;;;;;3.25;2.95;;;16.80;99.90;;;;;;5036991;28;20238;-73
2022/06/23 03:14:28;;;;;;;3.83;3.20;;;16.50;99.90;;;;;;5036550;28;20176;-73
2022/06/23 03:17:03;;;;;;;3.50;3.10;;;16.40;99.90;;;;;;5036567;28;20176;-74
2022/06/23 03:19:33;;;;;;;4.72;2.65;;;16.40;99.90;;;;;;5036400;28;20180;-73
2022/06/23 03:22:18;;;;;;;3.33;2.90;;;16.40;99.90;;;;;;5036057;28;20640;-72
2022/06/23 03:24:54;;;;;;;3.83;3.43;;;16.50;99.90;;;;;;5036241;28;20663;-72
2022/06/23 03:27:35;;;;;;;7.77;3.60;;;16.30;99.90;;;;;;5036192;28;20173;-71
2022/06/23 03:30:22;;;;;;;5.37;3.40;;;16.30;99.90;;;;;;5036655;28;20185;-72
2022/06/23 03:32:56;;;;;;;3.70;3.27;;;16.30;99.90;;;;;;5036005;28;20187;-72
2022/06/23 03:35:36;;;;;;;4.70;3.07;;;16.20;99.90;;;;;;5037056;28;20208;-73
2022/06/23 03:38:14;;;;;;;5.10;3.47;;;16.30;99.90;;;;;;5036409;28;20255;-73
2022/06/23 03:43:34;;;;;;;3.57;3.20;;;16.30;99.90;;;;;;5036361;28;20254;-73
2022/06/23 03:46:23;;;;;;;3.33;3.03;;;16.30;99.90;;;;;;5036685;28;20230;-74
2022/06/23 03:48:49;;;;;;;3.60;3.03;;;16.50;99.90;;;;;;5038546;28;20180;-73
2022/06/23 03:51:31;;;;;;;3.83;3.43;;;16.30;99.90;;;;;;5038951;28;20192;-72
2022/06/23 03:54:02;;;;;;;4.07;3.50;;;16.20;99.90;;;;;;5040031;28;20180;-73
2022/06/23 03:56:46;;;;;;;3.77;3.30;;;16.10;99.90;;;;;;5042264;28;20177;-72
2022/06/23 03:59:21;;;;;;;4.17;3.70;;;16.20;99.90;;;;;;5036116;28;20188;-72
2022/06/23 04:01:56;;;;;;;3.67;3.37;;;16.10;99.90;;;;;;5035508;28;20212;-72
2022/06/23 04:04:25;;;;;;;3.97;3.30;;;16.30;99.90;;;;;;5036052;28;20543;-72
2022/06/23 04:06:52;;;;;;;6.17;3.50;;;16.40;99.90;;;;;;5035825;28;20223;-72
2022/06/23 04:09:24;;;;;;;4.03;3.63;;;16.40;99.90;;;;;;5036183;28;20200;-73
2022/06/23 04:11:58;;;;;;;5.40;3.70;;;16.50;99.90;;;;;;5036019;28;20627;-71
2022/06/23 04:14:53;;;;;;;4.43;4.03;;;16.70;99.90;;;;;;5035450;28;20612;-72
2022/06/23 04:17:34;;;;;;;4.90;4.10;;;16.60;99.90;;;;;;5016839;28;20188;-72
2022/06/23 04:20:10;;;;;;;6.40;3.70;;;16.50;99.90;;;;;;5034923;28;20542;-74
2022/06/23 04:22:57;;;;;;;4.20;3.80;;;16.50;99.90;;;;;;5035318;28;20180;-73
2022/06/23 04:25:53;;;;;;;5.90;3.63;;;16.60;99.90;;;;;;5034795;28;20220;-73
2022/06/23 04:28:23;;;;;;;6.27;3.70;;;16.60;99.90;;;;;;5011701;28;20228;-73
2022/06/23 04:30:51;;;;;;;3.73;3.37;;;16.50;99.90;;;;;;5035110;28;20219;-72
2022/06/23 04:33:22;;;;;;;4.57;3.50;;;16.70;99.90;;;;;;5035393;28;20216;-73
2022/06/23 04:35:58;;;;;;;5.90;3.90;;;16.60;99.90;;;;;;5034746;28;20179;-72
2022/06/23 04:38:48;;;;;;;5.87;3.80;;;16.80;99.90;;;;;;5035157;28;20188;-72
2022/06/23 04:41:29;;;;;;;6.13;4.03;;;16.80;99.90;;;;;;5035112;28;20583;-73
2022/06/23 04:44:02;;;;;;;5.90;4.10;;;17.00;99.90;;;;;;5034742;28;20631;-73
2022/06/23 04:46:40;;;;;;;4.53;3.90;;;17.00;99.90;;;;;;5034729;28;20173;-72
2022/06/23 04:49:17;;;;;;;4.23;3.83;;;17.00;99.90;;;;;;5035104;28;20185;-73
2022/06/23 04:51:55;;;;;;;4.60;4.20;;;16.80;99.90;;;;;;5034647;28;20584;-73
2022/06/23 04:54:26;;;;;;;6.43;4.07;;;16.90;99.90;;;;;;5035245;28;20180;-72
2022/06/23 04:57:02;;;;;;;5.77;4.40;;;17.20;99.90;;;;;;5034708;28;20180;-72
2022/06/23 04:59:44;;;;;;;7.23;4.17;;;17.30;99.90;;;;;;5035116;28;20184;-73
2022/06/23 05:02:21;;;;;;;6.37;4.33;;;17.50;99.90;;;;;;5035239;28;20181;-71
2022/06/23 05:04:58;;;;;;;9.85;4.38;;;17.60;99.90;;;;;;5035063;28;20220;-73
2022/06/23 05:07:55;;;;;;;5.50;4.30;;;17.70;99.90;;;;;;5035111;28;20562;-72
2022/06/23 05:10:25;;;;;;;4.72;4.00;;;17.60;99.90;;;;;;5035036;28;20191;-73
2022/06/23 05:12:58;;;;;;;11.85;4.70;;;17.80;99.90;;;;;;5034641;28;20199;-73
2022/06/23 05:15:42;;;;;;;6.68;4.10;;;17.90;99.90;;;;;;5035266;28;20239;-73
2022/06/23 05:18:19;;;;;;;4.65;4.15;;;18.00;99.90;;;;;;5034922;28;20268;-73
2022/06/23 05:20:54;;;;;;;7.50;4.65;;;18.00;99.90;;;;;;5040832;28;20199;-73
2022/06/23 05:23:48;;;;;;;5.22;4.43;;;18.20;99.90;;;;;;5041328;28;20191;-73
2022/06/23 05:26:24;;;;;;;8.00;4.03;;;18.30;99.90;;;;;;5033693;28;20546;-72
2022/06/23 05:28:55;;;;;;;9.35;4.13;;;18.30;99.90;;;;;;5039701;28;20255;-73
2022/06/23 05:31:25;;;;;;;4.53;4.07;;;18.40;99.90;;;;;;5035870;28;20264;-72
2022/06/23 05:33:54;;;;;;;6.13;4.10;;;18.50;99.90;;;;;;5034134;28;20177;-73
2022/06/23 05:36:27;;;;;;;7.57;3.97;;;18.60;99.90;;;;;;5034154;28;20191;-72
2022/06/23 05:39:02;;;;;;;8.98;4.45;;;18.70;99.90;;;;;;5034373;28;20184;-72
2022/06/23 05:41:41;;;;;;;5.25;4.13;;;18.70;99.90;;;;;;5035014;28;20184;-73
2022/06/23 05:44:19;;;;;;;4.35;3.95;;;18.80;99.90;;;;;;5016302;28;20204;-71
2022/06/23 05:46:47;;;;;;;3.92;3.58;;;18.90;99.90;;;;;;5033906;28;20183;-73
2022/06/23 05:49:26;;;;;;;4.40;4.00;;;19.00;99.90;;;;;;5033640;28;20628;-73
2022/06/23 05:51:59;;;;;;;6.07;3.97;;;19.00;99.90;;;;;;5034116;28;20263;-73
2022/06/23 05:54:44;;;;;;;7.05;3.88;;;19.50;99.90;;;;;;5033976;28;20584;-73
2022/06/23 05:57:19;;;;;;;5.00;4.50;;;19.40;99.90;;;;;;5014917;28;20184;-73
2022/06/23 05:59:45;;;;;;;13.07;3.90;;;19.40;99.90;;;;;;5034061;28;20176;-73
2022/06/23 06:02:20;;;;;;;4.68;4.13;;;19.50;99.90;;;;;;5033739;28;20192;-73
2022/06/23 06:04:52;;;;;;;6.88;4.15;;;19.50;99.90;;;;;;5033522;28;20336;-72
2022/06/23 06:07:21;;;;;;;5.35;3.95;;;19.50;99.90;;;;;;5033742;28;20177;-72
2022/06/23 06:09:47;;;;;;;5.80;4.35;;;19.60;99.90;;;;;;5033545;28;20185;-71
2022/06/23 06:12:19;;;;;;;9.70;4.05;;;19.60;99.90;;;;;;5033737;28;20181;-73
2022/06/23 06:14:51;;;;;;;4.88;4.18;;;19.70;99.90;;;;;;5033254;28;20181;-73
2022/06/23 06:17:24;;;;;;;4.68;4.05;;;19.80;99.90;;;;;;5033898;28;20632;-72
2022/06/23 06:19:51;;;;;;;5.70;3.97;;;20.00;99.90;;;;;;5033565;28;20191;-73
2022/06/23 06:22:28;;;;;;;10.20;4.43;;;20.20;99.90;;;;;;5034096;28;20176;-74
2022/06/23 06:24:57;;;;;;;4.65;3.90;;;20.30;99.90;;;;;;5033030;28;20663;-73
2022/06/23 06:27:23;;;;;;;5.40;3.30;;;20.00;99.90;;;;;;5033237;28;20561;-71
2022/06/23 06:29:49;;;;;;;7.70;3.92;;;20.20;99.90;;;;;;5033403;28;20183;-73
2022/06/23 06:32:34;;;;;;;4.05;3.65;;;20.30;99.90;;;;;;5033237;28;20555;-73
2022/06/23 06:35:06;;;;;;;4.68;3.70;;;20.60;99.90;;;;;;5033520;28;20181;-73
2022/06/23 06:37:36;;;;;;;6.90;3.85;;;20.60;99.90;;;;;;5033368;28;20181;-74
2022/06/23 06:40:06;;;;;;;5.85;3.80;;;20.80;99.90;;;;;;5033255;28;20215;-73
2022/06/23 06:42:36;;;;;;;4.32;3.90;;;21.00;99.90;;;;;;5033237;28;20173;-73
2022/06/23 06:45:07;;;;;;;6.15;3.72;;;21.10;99.90;;;;;;5032982;28;20678;-73
2022/06/23 06:47:38;;;;;;;4.65;3.55;;;21.20;99.90;;;;;;5032942;28;20176;-73
2022/06/23 06:50:18;;;;;;;7.95;3.88;;;21.40;99.90;;;;;;5033016;28;20227;-71
2022/06/23 06:52:49;;;;;;;4.63;3.50;;;21.60;99.90;;;;;;5032926;28;20177;-73
2022/06/23 06:55:27;;;;;;;6.28;3.65;;;21.80;99.90;;;;;;5033025;28;20177;-74
2022/06/23 06:58:06;;;;;;;12.35;3.55;;;21.80;99.90;;;;;;5032726;28;20218;-74
2022/06/23 07:00:42;;;;;;;5.82;3.75;;;21.70;99.90;;;;;;5032927;28;20184;-74
2022/06/23 07:03:10;;;;;;;11.98;3.90;;;22.00;99.90;;;;;;5033033;28;20627;-75
2022/06/23 07:06:08;;;;;;;5.22;3.75;;;22.10;99.90;;;;;;5033636;28;20252;-72
2022/06/23 07:09:01;;;;;;;6.10;3.42;;;22.10;99.90;;;;;;5035164;28;20216;-78
2022/06/23 07:11:30;;;;;;;7.90;3.30;;;22.30;99.90;;;;;;5038617;28;20177;-77
2022/06/23 07:14:05;;;;;;;6.43;3.40;;;22.70;99.90;;;;;;5037238;28;20511;-75
2022/06/23 07:16:51;;;;;;;5.85;3.60;;;22.70;99.50;;;;;;5041917;28;20516;-75
2022/06/23 07:19:42;;;;;;;6.40;4.05;;;22.60;97.30;;;;;;5049253;28;20690;-74
2022/06/23 07:22:32;;;;;;;6.18;3.85;;;23.00;98.10;;;;;;5049808;28;20185;-76
2022/06/23 07:25:00;;;;;;;3.80;2.92;;;23.20;96.60;;;;;;5044875;28;20224;-76
2022/06/23 07:27:32;;;;;;;4.93;3.35;;;23.20;96.30;;;;;;5037240;28;20188;-75
2022/06/23 07:30:22;;;;;;;6.30;3.35;;;23.20;96.40;;;;;;5037883;28;20541;-76
2022/06/23 07:33:00;;;;;;;8.30;3.50;;;23.50;96.50;;;;;;5027593;28;20196;-74
2022/06/23 07:35:34;;;;;;;8.40;3.92;;;23.50;95.40;;;;;;5037548;28;20184;-76
2022/06/23 07:38:15;;;;;;;7.28;3.50;;;23.70;94.60;;;;;;5036768;28;20192;-76
2022/06/23 07:40:47;;;;;;;4.07;3.03;;;24.10;94.10;;;;;;5037430;28;20180;-75
2022/06/23 07:43:44;;;;;;;4.88;3.20;;;24.10;91.70;;;;;;5036926;28;20540;-77
2022/06/23 07:46:10;;;;;;;5.93;2.83;;;23.90;92.30;;;;;;5036706;28;20224;-78
2022/06/23 07:48:37;;;;;;;4.75;3.83;;;23.80;90.70;;;;;;5036988;28;20230;-77
2022/06/23 07:51:08;;;;;;;6.50;3.60;;;24.00;91.50;;;;;;5037406;28;20176;-77
2022/06/23 07:53:40;;;;;;;8.13;2.97;;;23.90;91.10;;;;;;5036936;28;20564;-75
2022/06/23 07:56:10;;;;;;;4.25;3.10;;;24.20;91.50;;;;;;5036837;28;20187;-75
2022/06/23 07:58:42;;;;;;;10.88;3.20;;;24.40;90.10;;;;;;5036745;28;20183;-73
2022/06/23 08:01:32;;;;;;;4.85;3.10;;;24.60;88.50;;;;;;5036988;28;20215;-75
2022/06/23 08:04:10;;;;;;;4.80;3.17;;;25.20;89.30;;;;;;5037352;28;20639;-77
2022/06/23 08:06:36;;;;;;;6.57;3.22;;;25.50;85.40;;;;;;5036945;28;20188;-74
2022/06/23 08:09:09;;;;;;;5.63;3.40;;;25.40;83.60;;;;;;5036398;28;20520;-76
2022/06/23 08:14:30;;;;;;;3.72;3.17;;;25.30;81.30;;;;;;5036421;28;20192;-74
2022/06/23 08:16:56;;;;;;;8.63;3.30;;;25.50;82.40;;;;;;5036584;28;20538;-75
2022/06/23 08:19:55;;;;;;;7.28;3.20;;;25.70;78.40;;;;;;5036048;28;20181;-76
2022/06/23 08:22:24;;;;;;;5.72;3.20;;;25.60;78.40;;;;;;5025181;28;20188;-74
2022/06/23 08:24:56;;;;;;;6.13;3.30;;;25.90;82.70;;;;;;5036352;28;20220;-76
2022/06/23 08:27:24;;;;;;;11.20;3.13;;;25.90;77.90;;;;;;5035757;28;20562;-77
2022/06/23 08:29:59;;;;;;;4.45;3.13;;;26.20;77.50;;;;;;5036828;28;20183;-73
2022/06/23 08:32:25;;;;;;;5.55;3.08;;;25.90;74.00;;;;;;5037548;28;20230;-77
2022/06/23 08:34:59;;;;;;;7.80;3.10;;;25.70;75.30;;;;;;5037598;28;20631;-76
2022/06/23 08:37:24;;;;;;;9.88;3.20;;;25.90;74.80;;;;;;5035781;28;20177;-76
2022/06/23 08:40:01;;;;;;;3.88;3.13;;;26.10;72.90;;;;;;5036189;28;20483;-75
2022/06/23 08:42:40;;;;;;;9.13;3.22;;;26.40;71.40;;;;;;5035383;28;20601;-73
2022/06/23 08:45:38;;;;;;;5.90;3.03;;;26.40;71.30;;;;;;5036356;28;20231;-76
2022/06/23 08:48:18;;;;;;;6.15;2.97;;;26.80;71.90;;;;;;5035719;28;20181;-75
2022/06/23 08:50:54;;;;;;;5.55;2.78;;;26.50;68.70;;;;;;5036333;28;20524;-75
2022/06/23 08:53:39;;;;;;;4.53;3.17;;;26.90;68.40;;;;;;5035462;28;20180;-75
2022/06/23 08:56:08;;;;;;;3.05;2.75;;;27.20;68.40;;;;;;5035560;28;20195;-74
2022/06/23 08:58:52;;;;;;;3.95;2.70;;;27.40;64.90;;;;;;5035565;28;20184;-77
2022/06/23 09:01:20;;;;;;;3.25;2.55;;;27.40;64.60;;;;;;5034693;28;20624;-77
2022/06/23 09:04:09;;;;;;;2.80;2.60;;;27.60;65.20;;;;;;5034988;28;20259;-76
2022/06/23 09:06:57;;;;;;;3.20;2.90;;;27.70;63.70;;;;;;5034996;28;20188;-75
2022/06/23 09:09:51;;;;;;;4.18;2.60;;;28.00;62.20;;;;;;5034837;28;20208;-79
2022/06/23 09:12:46;;;;;;;5.38;2.67;;;27.90;59.70;;;;;;5035261;28;20180;-75
2022/06/23 09:15:43;;;;;;;4.53;2.70;;;28.20;60.20;;;;;;5033517;28;20189;-75
2022/06/23 09:18:33;;;;;;;7.85;2.80;;;28.40;59.30;;;;;;5036058;28;20187;-77
2022/06/23 09:21:25;;;;;;;5.93;2.90;;;28.20;57.90;;;;;;5034783;28;20535;-75
2022/06/23 09:24:02;;;;;;;4.07;2.58;;;28.50;57.70;;;;;;5035666;28;20655;-78
2022/06/23 09:26:41;;;;;;;8.20;2.72;;;28.70;57.60;;;;;;5035175;28;20584;-76
2022/06/23 09:29:40;;;;;;;2.55;2.35;;;28.80;55.00;;;;;;5041563;28;20232;-75
2022/06/23 09:32:23;;;;;;;5.45;2.75;;;28.80;54.10;;;;;;5039612;28;20176;-76
2022/06/23 09:35:11;;;;;;;3.10;2.50;;;29.10;54.80;;;;;;5038146;28;20245;-75
2022/06/23 09:37:40;;;;;;;3.35;2.70;;;28.60;53.00;;;;;;5050315;28;20192;-76
2022/06/23 09:40:33;;;;;;;6.72;2.58;;;28.90;54.10;;;;;;5040748;28;20703;-74
2022/06/23 09:43:20;;;;;;;3.38;2.60;;;29.00;52.40;;;;;;5035416;28;20184;-74
2022/06/23 09:46:13;;;;;;;4.45;3.13;;;29.20;51.60;;;;;;5034463;28;20251;-73
2022/06/23 09:48:51;;;;;;;3.58;2.50;;;28.70;51.00;;;;;;5034808;28;20173;-74
2022/06/23 09:51:35;;;;;;;2.50;2.30;;;28.90;51.40;;;;;;5034841;28;20197;-74
2022/06/23 09:54:34;;;;;;;3.33;3.00;;;29.40;50.40;;;;;;5035466;28;20516;-75
2022/06/23 09:57:37;;;;;;;3.30;2.50;;;29.50;48.80;;;;;;5034678;28;20306;-75
2022/06/23 10:00:17;;;;;;;2.88;2.42;;;29.70;48.20;;;;;;5034284;28;20600;-76
2022/06/23 10:02:56;;;;;;;3.53;2.38;;;29.90;47.40;;;;;;5034528;28;20180;-75
2022/06/23 10:05:54;;;;;;;3.95;2.58;;;29.60;47.20;;;;;;5034088;28;20228;-75
2022/06/23 10:08:44;;;;;;;2.60;2.40;;;29.80;47.20;;;;;;4980292;28;20303;-75
2022/06/23 10:11:15;;;;;;;7.68;2.70;;;29.80;46.40;;;;;;5033957;28;20180;-73
2022/06/23 10:14:08;;;;;;;2.33;2.13;;;29.80;46.30;;;;;;5033292;28;20227;-74
2022/06/23 10:16:58;;;;;;;2.40;2.20;;;30.10;45.60;;;;;;5034235;28;20207;-73
2022/06/23 10:19:54;;;;;;;6.30;2.15;;;29.90;44.30;;;;;;5033816;28;20523;-76
2022/06/23 10:22:45;;;;;;;2.83;2.35;;;29.70;44.40;;;;;;5034569;28;20235;-73
2022/06/23 10:25:39;;;;;;;2.65;2.33;;;29.90;44.40;;;;;;5034311;28;20381;-75
2022/06/23 10:28:19;;;;;;;5.65;2.17;;;30.00;43.80;;;;;;5028771;28;20228;-76
2022/06/23 10:30:51;;;;;;;2.20;1.90;;;30.00;42.90;;;;;;5034107;28;20616;-74
2022/06/23 10:33:57;;;;;;;2.85;2.28;;;30.10;42.90;;;;;;5034068;28;20628;-74
2022/06/23 10:36:44;;;;;;;2.92;2.10;;;30.60;41.60;;;;;;5034444;28;20169;-76
2022/06/23 10:39:28;;;;;;;3.38;2.10;;;30.30;41.50;;;;;;5034341;28;20181;-76
2022/06/23 10:42:29;;;;;;;2.33;2.13;;;30.30;41.50;;;;;;5034138;28;20172;-77
2022/06/23 10:45:41;;;;;;;4.15;2.30;;;30.20;41.80;;;;;;5038297;28;20213;-73
2022/06/23 10:48:35;;;;;;;4.90;2.15;;;30.00;40.60;;;;;;5010161;28;20694;-75
2022/06/23 10:51:30;;;;;;;3.42;2.65;;;30.20;41.40;;;;;;5037784;28;20177;-75
2022/06/23 10:54:08;;;;;;;5.65;2.80;;;30.60;39.00;;;;;;5038035;28;20180;-74
2022/06/23 10:56:49;;;;;;;2.75;2.22;;;31.00;38.40;;;;;;5039071;28;20287;-76
2022/06/23 10:59:44;;;;;;;6.85;2.10;;;31.00;38.00;;;;;;5037766;28;20188;-74
2022/06/23 11:02:41;;;;;;;5.95;2.20;;;30.80;38.30;;;;;;5037854;28;20177;-77
2022/06/23 11:05:06;;;;;;;3.13;2.00;;;30.70;37.60;;;;;;5038010;28;20304;-75
2022/06/23 11:08:04;;;;;;;2.10;1.88;;;30.70;38.00;;;;;;5037725;28;20660;-77
2022/06/23 11:10:38;;;;;;;2.10;1.90;;;30.60;37.50;;;;;;5024379;28;20220;-76
2022/06/23 11:13:12;;;;;;;2.10;1.90;;;30.40;37.70;;;;;;5037958;28;20176;-75
2022/06/23 11:15:51;;;;;;;2.50;2.10;;;31.00;38.00;;;;;;5038038;28;20253;-76
2022/06/23 11:18:43;;;;;;;3.58;2.10;;;30.80;36.80;;;;;;5037788;28;20177;-75
2022/06/23 11:21:38;;;;;;;5.28;2.03;;;31.00;37.60;;;;;;5038014;28;20181;-76
2022/06/23 11:24:31;;;;;;;2.05;1.70;;;31.00;37.00;;;;;;5038316;28;20203;-73
2022/06/23 11:27:20;;;;;;;2.22;2.03;;;31.20;36.50;;;;;;5037647;28;20188;-75
2022/06/23 11:29:56;;;;;;;3.40;1.90;;;30.70;36.00;;;;;;5038376;28;20188;-76
2022/06/23 11:32:37;;;;;;;3.10;2.20;;;30.70;36.60;;;;;;5037865;28;20204;-75
2022/06/23 11:35:35;;;;;;;2.40;2.00;;;31.10;37.00;;;;;;5038254;28;20252;-79
2022/06/23 11:38:36;;;;;;;5.03;3.58;;;31.20;36.50;;;;;;5038297;28;20177;-76
2022/06/23 11:41:33;;;;;;;7.10;2.30;;;31.30;35.70;;;;;;5038830;28;20562;-75
2022/06/23 11:44:22;;;;;;;3.78;2.00;;;31.30;35.00;;;;;;5037525;28;20181;-75
2022/06/23 11:47:04;;;;;;;2.85;2.30;;;31.00;35.60;;;;;;5041826;28;20183;-76
2022/06/23 11:49:43;;;;;;;3.90;2.85;;;31.00;36.40;;;;;;5044598;28;20251;-76
2022/06/23 11:52:34;;;;;;;4.40;3.20;;;31.70;36.80;;;;;;5042119;28;20181;-75
2022/06/23 11:55:26;;;;;;;3.03;1.88;;;31.90;35.00;;;;;;5040592;28;20183;-77
2022/06/23 11:58:19;;;;;;;3.50;2.53;;;31.40;33.80;;;;;;5019181;28;20188;-76
2022/06/23 12:01:04;;;;;;;2.13;1.65;;;31.60;34.30;;;;;;5042761;28;20176;-76
2022/06/23 12:04:03;;;;;;;2.72;2.03;;;32.00;34.20;;;;;;5037362;28;20181;-76
2022/06/23 12:06:37;;;;;;;1.73;1.63;;;32.20;33.10;;;;;;5030003;28;20284;-74
2022/06/23 12:09:05;;;;;;;2.65;1.90;;;31.60;32.60;;;;;;5037380;28;20172;-77
2022/06/23 12:11:33;;;;;;;5.05;4.10;;;31.60;33.10;;;;;;5038311;28;20181;-78
2022/06/23 12:14:02;;;;;;;3.50;2.10;;;32.00;33.40;;;;;;5036784;28;20271;-77
2022/06/23 12:16:27;;;;;;;2.95;1.70;;;31.90;32.70;;;;;;5037027;28;20270;-76
2022/06/23 12:18:59;;;;;;;9.18;6.65;;;32.00;32.80;;;;;;5037739;28;20177;-75
2022/06/23 12:21:37;;;;;;;1.90;1.73;;;31.70;32.80;;;;;;5037439;28;20180;-74
2022/06/23 12:24:19;;;;;;;2.97;2.70;;;31.50;32.40;;;;;;5037223;28;20181;-76
2022/06/23 12:27:06;;;;;;;3.60;2.85;;;31.70;32.80;;;;;;5037570;28;20184;-74
2022/06/23 12:29:45;;;;;;;3.60;1.75;;;32.20;32.50;;;;;;5036944;28;20258;-73
2022/06/23 12:32:18;;;;;;;31.58;22.00;;;32.20;31.00;;;;;;5038742;28;20259;-75
2022/06/23 12:35:14;;;;;;;21.55;17.15;;;32.50;31.70;;;;;;5037658;28;20188;-72
2022/06/23 12:38:14;;;;;;;2.10;1.90;;;32.20;29.00;;;;;;5037145;28;20184;-75
2022/06/23 12:40:57;;;;;;;1.60;1.50;;;32.40;28.40;;;;;;5037161;28;20267;-76
2022/06/23 12:43:36;;;;;;;2.75;1.67;;;32.40;27.70;;;;;;5036623;28;20212;-76
2022/06/23 12:46:19;;;;;;;2.95;1.60;;;32.50;28.30;;;;;;5036457;28;20220;-75
2022/06/23 12:49:05;;;;;;;1.77;1.67;;;32.10;26.80;;;;;;5037447;28;20172;-74
2022/06/23 12:52:00;;;;;;;1.60;1.50;;;32.50;27.60;;;;;;5035963;28;20180;-77
2022/06/23 12:54:48;;;;;;;1.83;1.67;;;32.80;27.20;;;;;;5036773;28;20187;-75
2022/06/23 12:57:42;;;;;;;5.05;1.75;;;32.70;27.90;;;;;;5036096;28;20181;-76
2022/06/23 13:00:18;;;;;;;2.10;1.65;;;32.60;27.50;;;;;;5036742;28;20644;-77
2022/06/23 13:02:49;;;;;;;2.05;1.48;;;32.30;26.80;;;;;;5036885;28;20185;-77
2022/06/23 13:05:26;;;;;;;2.55;1.83;;;32.50;27.40;;;;;;5036559;28;20259;-74
2022/06/23 13:08:02;;;;;;;3.80;2.30;;;32.80;27.10;;;;;;5046159;28;20199;-76
2022/06/23 13:10:36;;;;;;;2.33;1.90;;;32.80;27.50;;;;;;5042111;28;20228;-76
2022/06/23 13:13:13;;;;;;;3.13;1.60;;;32.80;27.10;;;;;;5041962;28;20200;-77
2022/06/23 13:15:50;;;;;;;2.10;1.70;;;32.80;27.10;;;;;;5045708;28;20608;-76
2022/06/23 13:18:26;;;;;;;1.67;1.40;;;33.00;27.20;;;;;;5039219;28;20184;-76
2022/06/23 13:21:13;;;;;;;3.33;2.10;;;32.90;26.40;;;;;;5036897;28;20191;-75
2022/06/23 13:23:45;;;;;;;3.45;2.85;;;33.00;26.40;;;;;;5036777;28;20180;-77
2022/06/23 13:26:34;;;;;;;3.78;2.33;;;33.10;26.50;;;;;;5019090;28;20223;-77
2022/06/23 13:29:00;;;;;;;2.78;2.20;;;33.30;26.40;;;;;;5036212;28;20296;-75
2022/06/23 13:31:41;;;;;;;1.50;1.40;;;33.30;26.60;;;;;;5017517;28;20251;-75
2022/06/23 13:34:16;;;;;;;3.22;1.58;;;33.50;26.60;;;;;;5035116;28;20181;-76
2022/06/23 13:36:49;;;;;;;1.50;1.40;;;33.30;26.50;;;;;;5035148;28;20222;-76
2022/06/23 13:39:40;;;;;;;1.98;1.80;;;33.40;26.60;;;;;;5034586;28;20267;-77
2022/06/23 13:42:48;;;;;;;2.33;2.10;;;33.40;27.90;;;;;;5034472;28;20181;-76
2022/06/23 13:45:22;;;;;;;2.20;2.00;;;33.40;29.40;;;;;;5034552;28;20336;-74
2022/06/23 13:48:04;;;;;;;3.33;2.42;;;32.70;29.50;;;;;;5034454;28;20185;-76
2022/06/23 13:50:51;;;;;;;1.95;1.80;;;32.70;29.90;;;;;;5034043;28;20191;-74
2022/06/23 13:53:19;;;;;;;5.38;1.88;;;32.90;30.60;;;;;;5033976;28;20172;-77
2022/06/23 13:56:06;;;;;;;2.30;2.05;;;32.90;31.10;;;;;;5034672;28;20207;-78
2022/06/23 13:58:44;;;;;;;4.43;2.38;;;33.10;30.40;;;;;;5034838;28;20172;-77